Conway, North Dakota
Current Conditions -  °F | °C
As of 8:58 AM on Thursday 18 Dec 2014 (Local Time) from KRDR Reporting Station
Scattered Clouds Scattered Clouds  
Wind Chill:   Ceiling: Unl
Heat Index:   Visibility: 10mi
Dew Point:   Wind: 5mph
Humidity: 98%   Direction: 140°SE
Pressure: 30.23"   Gusts: NA
Location:  48.2362°N, 97.4515°W
Report Text: KRDR 181458Z AUTO 14004KT 10SM SCT100 M13/M13 A3023 RMK AO2 SLP265 T11291132 57007
Loading
Personal Weather Stations






























Interactive Weather Map New forecast layout! Learn more

10-Day Weather Forecast

Advertisements
Track Severe Weather on mobile